Time;durP1;ratioP1;P1;durP2;ratioP2;P2;SDS_P1;SDS_P2;PMS_P1;PMS_P2;Temp;Humidity;BMP_temperature;BMP_pressure;BME280_temperature;BME280_humidity;BME280_pressure;Samples;Min_cycle;Max_cycle;Signal;HPM_P1;HPM_P2
2024/04/26 00:00:53;;;;;;;20.15;10.13;;;;;;;2.10;59.82;100073.38;5292669;26;20012;-75
2024/04/26 00:03:20;;;;;;;16.60;8.43;;;;;;;2.35;59.36;100071.19;5289133;26;20442;-76
2024/04/26 00:05:46;;;;;;;15.40;8.73;;;;;;;2.67;58.69;100067.16;5283424;26;20001;-77
2024/04/26 00:08:14;;;;;;;14.48;8.65;;;;;;;2.57;58.61;100063.91;5291635;26;20032;-77
2024/04/26 00:10:40;;;;;;;17.27;8.70;;;;;;;2.56;58.37;100044.16;5294418;26;20016;-77
2024/04/26 00:13:05;;;;;;;15.00;9.55;;;;;;;2.53;58.17;100052.81;5291196;26;20005;-77
2024/04/26 00:15:31;;;;;;;15.30;9.23;;;;;;;2.05;59.79;100052.00;5291412;26;20096;-76
2024/04/26 00:17:56;;;;;;;17.05;10.18;;;;;;;1.98;60.33;100047.84;5287259;26;20016;-77
2024/04/26 00:20:22;;;;;;;21.60;9.95;;;;;;;2.35;59.49;100054.03;5286726;26;20053;-77
2024/04/26 00:22:47;;;;;;;18.95;10.30;;;;;;;2.61;58.79;100050.06;5294110;26;20033;-76
2024/04/26 00:25:13;;;;;;;17.25;11.02;;;;;;;2.81;57.87;100051.41;5296223;26;20008;-77
2024/04/26 00:27:38;;;;;;;23.63;11.07;;;;;;;2.77;58.02;100040.28;5312543;26;20002;-76
2024/04/26 00:30:04;;;;;;;19.33;10.32;;;;;;;2.64;58.34;100044.00;5292037;26;20758;-76
2024/04/26 00:32:30;;;;;;;16.40;9.80;;;;;;;2.60;58.91;100037.19;5260827;26;20013;-77
2024/04/26 00:34:55;;;;;;;23.77;13.27;;;;;;;2.73;58.37;100034.34;5325663;26;20005;-76
2024/04/26 00:37:21;;;;;;;18.17;11.00;;;;;;;2.83;58.55;100039.31;5291437;26;20891;-76
2024/04/26 00:39:46;;;;;;;21.15;10.55;;;;;;;2.88;58.55;100042.63;5272217;26;20016;-77
2024/04/26 00:42:12;;;;;;;16.85;10.25;;;;;;;2.70;58.80;100038.72;5269144;26;20068;-76
2024/04/26 00:44:37;;;;;;;20.70;11.18;;;;;;;2.96;58.20;100035.59;5260821;26;20674;-76
2024/04/26 00:47:03;;;;;;;17.40;9.15;;;;;;;2.93;58.28;100040.78;5287873;26;20016;-76
2024/04/26 00:49:28;;;;;;;19.50;11.13;;;;;;;2.73;59.00;100034.34;5289440;26;20481;-77
2024/04/26 00:51:56;;;;;;;18.77;10.93;;;;;;;2.91;58.23;100032.22;5287692;26;19998;-77
2024/04/26 00:54:24;;;;;;;18.65;11.18;;;;;;;2.84;58.61;100036.69;5293046;26;20420;-76
2024/04/26 00:56:53;;;;;;;20.38;11.35;;;;;;;2.48;59.93;100033.97;5287046;26;20012;-75
2024/04/26 00:59:19;;;;;;;24.45;10.80;;;;;;;2.54;60.22;100035.59;5288385;26;20017;-76
2024/04/26 01:01:44;;;;;;;20.27;10.70;;;;;;;2.72;59.76;100037.78;5321954;26;20006;-76
2024/04/26 01:04:10;;;;;;;27.35;13.00;;;;;;;2.85;58.78;100022.06;5289123;26;20368;-76
2024/04/26 01:06:36;;;;;;;22.02;11.38;;;;;;;2.80;59.38;100023.88;5294562;26;20132;-79
2024/04/26 01:09:01;;;;;;;19.33;11.15;;;;;;;3.08;58.71;100024.97;5292338;26;20012;-76
2024/04/26 01:11:27;;;;;;;18.73;10.73;;;;;;;2.84;59.67;100026.34;5302723;26;20029;-76
2024/04/26 01:13:53;;;;;;;23.10;11.63;;;;;;;3.12;58.90;100029.19;5298236;26;20603;-76
2024/04/26 01:16:18;;;;;;;20.25;10.70;;;;;;;2.99;58.87;100020.00;5294570;26;20006;-75
2024/04/26 01:18:44;;;;;;;18.42;11.52;;;;;;;3.04;58.69;100022.50;5266894;26;20013;-75
2024/04/26 01:21:11;;;;;;;20.75;11.48;;;;;;;3.00;58.90;100020.84;5287867;26;20077;-77
2024/04/26 01:23:36;;;;;;;18.48;11.20;;;;;;;2.97;59.58;100022.63;5297121;26;20002;-77
2024/04/26 01:26:03;;;;;;;23.45;10.40;;;;;;;3.11;59.06;100027.50;5291154;26;20004;-77
2024/04/26 01:28:30;;;;;;;24.83;11.13;;;;;;;3.17;59.29;100022.19;5296712;26;20017;-76
2024/04/26 01:30:56;;;;;;;20.63;10.43;;;;;;;3.26;58.93;100030.59;5300638;26;20020;-76
2024/04/26 01:33:22;;;;;;;19.25;10.98;;;;;;;2.99;58.96;100025.19;5288936;26;20497;-78
2024/04/26 01:35:47;;;;;;;14.98;9.50;;;;;;;2.55;60.89;100034.69;5291974;26;20027;-78
2024/04/26 01:38:12;;;;;;;21.52;11.40;;;;;;;2.96;59.68;100035.59;5288910;26;20050;-78
2024/04/26 01:40:38;;;;;;;20.23;11.05;;;;;;;3.18;59.20;100036.81;5287400;26;20004;-77
2024/04/26 01:43:06;;;;;;;18.23;10.15;;;;;;;3.12;59.47;100036.94;5285957;26;20007;-78
2024/04/26 01:45:32;;;;;;;22.30;11.32;;;;;;;3.12;59.90;100036.94;5283906;26;20031;-77
2024/04/26 01:47:57;;;;;;;20.20;10.73;;;;;;;3.33;59.46;100032.19;5284139;26;20508;-75
2024/04/26 01:50:23;;;;;;;14.98;9.85;;;;;;;3.19;59.70;100037.66;5285003;26;19997;-78
2024/04/26 01:52:50;;;;;;;17.50;9.48;;;;;;;3.26;59.10;100028.88;5282969;26;20006;-78
2024/04/26 01:55:15;;;;;;;19.90;10.52;;;;;;;3.21;59.36;100033.28;5289395;26;20762;-75
2024/04/26 01:57:44;;;;;;;14.82;9.60;;;;;;;3.15;60.14;100039.44;5256418;26;20147;-76
2024/04/26 02:00:10;;;;;;;17.38;10.00;;;;;;;3.10;59.65;100033.53;5290670;26;19998;-75
2024/04/26 02:02:37;;;;;;;15.98;10.00;;;;;;;3.22;59.68;100042.72;5277796;26;20048;-76
2024/04/26 02:05:03;;;;;;;16.20;9.45;;;;;;;3.34;59.38;100046.81;5302196;26;20476;-76
2024/04/26 02:07:28;;;;;;;18.50;9.65;;;;;;;3.29;59.80;100036.59;5287280;26;20017;-76
2024/04/26 02:09:54;;;;;;;19.50;8.85;;;;;;;3.42;59.40;100046.63;5290428;26;21148;-78
2024/04/26 02:12:19;;;;;;;15.25;8.98;;;;;;;3.57;59.18;100051.44;5299980;26;20068;-76
2024/04/26 02:14:45;;;;;;;15.68;9.40;;;;;;;3.05;60.17;100045.72;5288826;26;20017;-79
2024/04/26 02:17:12;;;;;;;15.60;8.82;;;;;;;3.47;59.69;100058.56;5288114;26;20006;-77
2024/04/26 02:19:39;;;;;;;14.35;8.32;;;;;;;3.44;59.75;100053.44;5333686;26;20015;-78
2024/04/26 02:22:05;;;;;;;17.25;9.65;;;;;;;3.45;59.45;100055.16;5285475;26;20042;-75
2024/04/26 02:24:30;;;;;;;18.63;10.05;;;;;;;3.58;59.23;100054.00;5322322;26;20464;-75
2024/04/26 02:26:56;;;;;;;17.65;9.32;;;;;;;3.51;59.56;100055.00;5280768;26;20012;-78
2024/04/26 02:29:21;;;;;;;11.95;8.13;;;;;;;3.07;60.03;100053.41;5294804;26;20037;-78
2024/04/26 02:31:47;;;;;;;14.60;7.97;;;;;;;3.20;59.48;100057.41;5286179;26;20016;-75
2024/04/26 02:34:12;;;;;;;11.93;6.32;;;;;;;3.06;59.74;100060.31;5301238;26;20001;-77
2024/04/26 02:36:38;;;;;;;15.27;7.25;;;;;;;3.16;59.24;100043.72;5292091;26;20435;-76
2024/04/26 02:39:05;;;;;;;13.20;6.15;;;;;;;2.91;59.59;100047.72;5294416;26;20100;-77
2024/04/26 02:41:30;;;;;;;12.25;6.43;;;;;;;3.25;58.84;100041.81;5290700;26;20010;-79
2024/04/26 02:43:56;;;;;;;9.70;5.55;;;;;;;3.08;58.45;100044.78;5285753;26;20076;-76
2024/04/26 02:46:21;;;;;;;11.48;5.80;;;;;;;2.89;59.10;100044.31;5296191;26;20092;-75
2024/04/26 02:48:47;;;;;;;8.80;5.15;;;;;;;3.02;58.35;100045.75;5314840;26;20034;-75
2024/04/26 02:51:13;;;;;;;10.63;5.68;;;;;;;2.94;58.64;100043.34;5291770;26;20534;-78
2024/04/26 02:53:39;;;;;;;10.25;5.55;;;;;;;2.84;58.77;100038.41;5287318;26;20091;-76
2024/04/26 02:56:06;;;;;;;10.23;4.88;;;;;;;3.01;58.75;100041.50;5284341;26;20452;-76
2024/04/26 02:58:31;;;;;;;10.50;5.07;;;;;;;3.11;58.45;100052.44;5293880;26;20716;-76
2024/04/26 03:00:57;;;;;;;12.90;5.60;;;;;;;2.92;58.98;100050.28;5291431;26;20005;-75
2024/04/26 03:03:22;;;;;;;11.48;6.07;;;;;;;3.01;58.50;100048.38;5318187;26;20005;-76
2024/04/26 03:05:48;;;;;;;9.02;4.53;;;;;;;3.07;58.39;100050.81;5288397;26;20045;-77
2024/04/26 03:08:14;;;;;;;10.52;5.38;;;;;;;3.19;58.78;100053.97;5287645;26;20013;-76
2024/04/26 03:10:40;;;;;;;11.30;4.93;;;;;;;3.31;58.56;100042.53;5261520;26;20427;-76
2024/04/26 03:13:06;;;;;;;8.85;4.75;;;;;;;3.35;58.63;100043.34;5289349;26;20753;-75
2024/04/26 03:15:32;;;;;;;9.25;4.72;;;;;;;3.53;58.36;100045.47;5291619;26;20001;-75
2024/04/26 03:17:57;;;;;;;12.93;6.28;;;;;;;3.57;58.41;100047.09;5322295;26;20020;-76
2024/04/26 03:20:28;;;;;;;11.60;5.88;;;;;;;3.62;58.47;100040.97;5316611;26;20032;-76
2024/04/26 03:22:57;;;;;;;7.60;4.28;;;;;;;3.47;58.50;100045.66;5296080;26;20049;-76
2024/04/26 03:25:23;;;;;;;11.77;6.72;;;;;;;3.47;57.92;100047.34;5302013;26;20753;-76
2024/04/26 03:27:50;;;;;;;14.38;6.60;;;;;;;3.47;58.26;100043.06;5254837;26;20654;-76
2024/04/26 03:30:16;;;;;;;12.40;6.28;;;;;;;3.55;58.41;100040.28;5293252;26;20005;-76
2024/04/26 03:32:41;;;;;;;8.93;6.10;;;;;;;3.41;58.84;100038.03;5344328;26;20475;-76
2024/04/26 03:35:06;;;;;;;11.73;7.30;;;;;;;3.42;58.73;100044.88;5288570;26;20017;-76
2024/04/26 03:37:32;;;;;;;11.68;7.05;;;;;;;3.44;59.09;100043.13;5292656;26;20462;-76
2024/04/26 03:39:57;;;;;;;12.90;6.93;;;;;;;3.48;59.04;100044.75;5285577;26;21076;-75
2024/04/26 03:42:23;;;;;;;12.70;8.30;;;;;;;3.41;59.24;100047.53;5298622;26;20028;-76
2024/04/26 03:44:48;;;;;;;15.23;7.95;;;;;;;3.48;58.86;100049.06;5292371;26;20157;-75
2024/04/26 03:47:14;;;;;;;13.45;6.93;;;;;;;3.64;58.86;100052.13;5291894;26;20009;-76
2024/04/26 03:49:39;;;;;;;14.70;7.00;;;;;;;3.63;58.68;100053.88;5293410;26;20020;-75
2024/04/26 03:52:05;;;;;;;15.27;7.78;;;;;;;3.74;58.46;100051.88;5291284;26;20013;-77
2024/04/26 03:54:31;;;;;;;14.20;7.78;;;;;;;3.70;58.68;100046.81;5289677;26;20368;-75
2024/04/26 03:56:58;;;;;;;12.50;7.85;;;;;;;3.70;58.49;100054.56;5258751;26;20503;-76
2024/04/26 03:59:24;;;;;;;17.20;9.55;;;;;;;3.70;58.23;100049.41;5292622;26;20016;-76
2024/04/26 04:01:50;;;;;;;11.45;7.30;;;;;;;3.65;58.03;100048.66;5299821;26;20020;-76
2024/04/26 04:04:15;;;;;;;12.32;7.60;;;;;;;3.55;58.08;100051.47;5300523;26;20013;-77
2024/04/26 04:06:41;;;;;;;14.05;7.70;;;;;;;3.46;58.29;100051.69;5343005;26;20017;-75
2024/04/26 04:09:06;;;;;;;17.90;9.63;;;;;;;3.35;58.06;100056.25;5288605;26;20001;-75
2024/04/26 04:11:32;;;;;;;13.55;8.10;;;;;;;3.23;58.74;100049.59;5297169;26;20519;-76
2024/04/26 04:13:58;;;;;;;17.42;8.30;;;;;;;3.25;58.87;100052.13;5287392;26;20058;-76
2024/04/26 04:16:23;;;;;;;13.18;7.32;;;;;;;3.23;58.73;100051.34;5293172;26;20453;-78
2024/04/26 04:18:49;;;;;;;18.80;8.10;;;;;;;3.13;58.85;100054.09;5293740;26;20020;-76
2024/04/26 04:21:16;;;;;;;16.05;8.63;;;;;;;3.19;58.41;100053.13;5289355;26;20016;-77
2024/04/26 04:23:41;;;;;;;14.60;7.70;;;;;;;3.13;58.57;100053.28;5289469;26;20008;-76
2024/04/26 04:26:07;;;;;;;13.80;7.25;;;;;;;3.16;58.39;100059.22;5287900;26;20031;-76
2024/04/26 04:28:32;;;;;;;12.80;8.07;;;;;;;3.10;58.75;100051.59;5288843;26;20298;-75
2024/04/26 04:30:57;;;;;;;13.80;9.00;;;;;;;3.05;58.42;100055.19;5296193;26;20076;-76
2024/04/26 04:33:23;;;;;;;15.07;8.93;;;;;;;3.00;59.06;100063.00;5286701;26;20006;-77
2024/04/26 04:35:51;;;;;;;14.05;8.70;;;;;;;3.01;58.68;100062.13;5294122;26;20767;-76
2024/04/26 04:38:16;;;;;;;13.73;6.93;;;;;;;2.97;58.35;100063.09;5289689;26;20090;-75
2024/04/26 04:40:42;;;;;;;13.02;7.15;;;;;;;2.98;58.73;100059.63;5292665;26;21043;-76
2024/04/26 04:43:09;;;;;;;10.85;7.30;;;;;;;2.98;58.69;100059.63;5278032;26;20001;-76
2024/04/26 04:45:35;;;;;;;13.63;8.10;;;;;;;2.92;58.52;100062.34;5319764;26;20005;-75
2024/04/26 04:48:00;;;;;;;14.52;7.95;;;;;;;3.01;59.17;100062.13;5254916;26;20020;-76
2024/04/26 04:50:25;;;;;;;14.85;8.98;;;;;;;3.08;59.43;100063.69;5290711;26;20060;-77
2024/04/26 04:52:51;;;;;;;15.30;7.60;;;;;;;3.32;59.49;100064.09;5322056;26;20016;-76
2024/04/26 04:55:16;;;;;;;14.98;8.88;;;;;;;3.52;59.61;100063.63;5291772;26;20053;-76
2024/04/26 04:57:42;;;;;;;14.80;8.40;;;;;;;3.62;59.08;100066.81;5292821;26;20027;-76
2024/04/26 05:00:07;;;;;;;13.57;6.57;;;;;;;3.68;58.76;100067.53;5294637;26;20464;-75
2024/04/26 05:02:33;;;;;;;18.10;8.90;;;;;;;3.75;59.01;100070.81;5297874;26;20013;-76
2024/04/26 05:04:58;;;;;;;16.92;8.57;;;;;;;3.77;58.78;100072.47;5296814;26;20009;-75
2024/04/26 05:07:24;;;;;;;18.20;8.18;;;;;;;4.02;58.71;100077.88;5292220;26;20076;-77
2024/04/26 05:09:49;;;;;;;15.68;8.70;;;;;;;4.07;58.24;100075.16;5261048;26;20045;-76
2024/04/26 05:12:15;;;;;;;16.27;8.60;;;;;;;4.09;58.31;100075.13;5294418;26;20005;-77
2024/04/26 05:14:41;;;;;;;13.82;7.57;;;;;;;4.64;57.53;100081.41;5285152;26;20020;-76
2024/04/26 05:17:07;;;;;;;16.27;8.52;;;;;;;4.25;56.67;100080.75;5286532;26;20468;-76
2024/04/26 05:19:32;;;;;;;17.38;8.63;;;;;;;4.50;57.44;100078.34;5295262;26;20455;-76
2024/04/26 05:21:58;;;;;;;17.80;8.85;;;;;;;5.45;56.04;100086.81;5290351;26;20001;-76
2024/04/26 05:24:26;;;;;;;13.82;8.25;;;;;;;5.33;54.71;100086.34;5292035;26;20016;-78
2024/04/26 05:26:53;;;;;;;13.93;8.35;;;;;;;4.88;55.05;100085.09;5301039;26;20004;-76
2024/04/26 05:29:23;;;;;;;11.00;7.75;;;;;;;5.03;55.02;100083.78;5289938;26;20020;-77
2024/04/26 05:31:48;;;;;;;11.68;7.57;;;;;;;6.04;53.79;100083.19;5288096;26;20484;-77
2024/04/26 05:34:14;;;;;;;15.80;8.40;;;;;;;6.27;52.35;100082.38;5342882;26;20005;-77
2024/04/26 05:36:40;;;;;;;11.77;6.80;;;;;;;6.25;53.55;100078.16;5318610;26;20255;-76
2024/04/26 05:39:05;;;;;;;10.00;6.80;;;;;;;6.22;50.75;100084.31;5283747;26;20014;-76
2024/04/26 05:41:31;;;;;;;11.85;7.13;;;;;;;5.36;52.56;100081.06;5289005;26;20768;-77
2024/04/26 05:43:57;;;;;;;11.02;5.85;;;;;;;5.28;54.26;100094.28;5288787;26;20048;-77
2024/04/26 05:46:23;;;;;;;12.95;6.43;;;;;;;7.94;49.65;100083.03;5295925;26;20013;-77
2024/04/26 05:48:49;;;;;;;11.75;6.72;;;;;;;8.75;44.77;100090.88;5288883;26;20345;-77
2024/04/26 05:51:16;;;;;;;8.07;5.35;;;;;;;9.90;45.37;100090.72;5261724;26;20013;-77
2024/04/26 05:53:42;;;;;;;12.00;5.50;;;;;;;11.31;41.08;100079.84;5319006;26;20019;-77
2024/04/26 05:56:08;;;;;;;7.95;5.03;;;;;;;11.46;41.17;100075.50;5260966;26;20408;-78
2024/04/26 05:58:34;;;;;;;6.07;4.97;;;;;;;12.31;39.31;100081.13;5296024;26;20009;-78
2024/04/26 06:01:00;;;;;;;6.32;3.92;;;;;;;12.01;39.28;100084.63;5287776;26;20381;-76
2024/04/26 06:03:26;;;;;;;7.63;4.03;;;;;;;13.35;35.58;100084.34;5286778;26;20112;-76
2024/04/26 06:05:52;;;;;;;4.80;3.92;;;;;;;13.69;35.75;100088.28;5290690;26;20080;-76
2024/04/26 06:08:18;;;;;;;5.05;3.47;;;;;;;13.31;38.60;100096.81;5285396;26;20101;-76
2024/04/26 06:10:44;;;;;;;9.32;3.75;;;;;;;14.22;34.90;100090.91;5302083;26;20748;-77
2024/04/26 06:13:09;;;;;;;6.68;3.80;;;;;;;13.21;35.90;100093.09;5336230;26;20071;-77
2024/04/26 06:15:36;;;;;;;10.85;4.22;;;;;;;11.66;37.43;100092.72;5289015;26;20019;-77
2024/04/26 06:18:03;;;;;;;6.20;3.53;;;;;;;10.93;39.64;100090.66;5280739;26;20412;-77
2024/04/26 06:20:30;;;;;;;9.18;4.43;;;;;;;9.87;41.21;100092.63;5318536;26;20017;-77
2024/04/26 06:22:56;;;;;;;7.25;3.30;;;;;;;10.79;41.08;100098.34;5292505;26;20033;-76
2024/04/26 06:25:21;;;;;;;6.05;3.13;;;;;;;11.77;37.25;100095.59;5271007;26;20009;-77
2024/04/26 06:27:47;;;;;;;7.78;4.00;;;;;;;12.09;37.42;100103.38;5293691;26;20019;-77
2024/04/26 06:30:12;;;;;;;5.10;3.47;;;;;;;12.36;37.22;100098.28;5290679;26;20369;-78
2024/04/26 06:32:38;;;;;;;5.15;3.50;;;;;;;11.62;37.33;100093.81;5292401;26;20781;-76
2024/04/26 06:35:03;;;;;;;6.13;3.92;;;;;;;11.60;39.08;100096.53;5292672;26;20382;-77
2024/04/26 06:37:29;;;;;;;6.97;3.47;;;;;;;13.25;36.05;100100.69;5296657;26;20010;-77
2024/04/26 06:39:56;;;;;;;7.57;3.78;;;;;;;14.72;33.86;100105.00;5300553;26;20005;-77
2024/04/26 06:42:21;;;;;;;6.20;3.85;;;;;;;12.66;35.46;100102.59;5289990;26;20025;-77
2024/04/26 06:44:47;;;;;;;8.07;4.22;;;;;;;11.57;37.83;100106.31;5291745;26;20366;-78
2024/04/26 06:47:14;;;;;;;4.93;3.55;;;;;;;9.89;40.46;100115.09;5291825;26;20086;-79
2024/04/26 06:49:39;;;;;;;7.72;3.80;;;;;;;8.46;43.31;100111.22;5280433;26;20368;-79
2024/04/26 06:52:05;;;;;;;7.32;4.28;;;;;;;7.61;46.43;100119.06;5291394;26;20014;-77
2024/04/26 06:54:30;;;;;;;7.40;4.57;;;;;;;7.19;47.55;100117.19;5284260;26;20018;-78
2024/04/26 06:56:56;;;;;;;6.55;5.32;;;;;;;5.89;50.10;100127.78;5290067;26;20689;-78
2024/04/26 06:59:21;;;;;;;8.32;4.60;;;;;;;6.00;49.73;100130.03;5292769;26;20017;-77
2024/04/26 07:01:51;;;;;;;7.38;4.60;;;;;;;5.67;50.96;100128.47;5295903;26;20020;-78
2024/04/26 07:04:17;;;;;;;7.30;5.38;;;;;;;6.85;50.12;100128.84;5287302;26;20016;-77
2024/04/26 07:06:42;;;;;;;8.45;4.65;;;;;;;9.07;45.11;100128.50;5284530;26;20009;-78
2024/04/26 07:09:08;;;;;;;8.82;4.70;;;;;;;8.90;43.58;100134.50;5286140;26;20014;-77
2024/04/26 07:11:34;;;;;;;5.25;3.30;;;;;;;8.04;43.78;100138.13;5296125;26;20390;-78
2024/04/26 07:13:59;;;;;;;10.30;4.80;;;;;;;8.41;45.51;100133.16;5295528;26;20016;-77
2024/04/26 07:16:25;;;;;;;6.05;4.25;;;;;;;11.37;41.73;100137.03;5333845;26;20729;-77
2024/04/26 07:18:52;;;;;;;8.18;3.72;;;;;;;11.70;39.49;100128.25;5263304;26;20021;-79
2024/04/26 07:21:17;;;;;;;5.13;3.55;;;;;;;9.48;42.42;100137.97;5297364;26;20037;-77
2024/04/26 07:23:43;;;;;;;5.60;4.20;;;;;;;9.08;41.91;100134.59;5294161;26;20014;-77
2024/04/26 07:26:08;;;;;;;5.93;4.30;;;;;;;7.90;44.66;100143.06;5291086;26;20013;-79
2024/04/26 07:28:34;;;;;;;5.05;4.25;;;;;;;8.42;44.58;100133.09;5341500;26;20584;-78
2024/04/26 07:31:00;;;;;;;10.25;3.88;;;;;;;8.40;43.89;100134.06;5293236;26;20079;-77
2024/04/26 07:33:25;;;;;;;5.20;4.13;;;;;;;8.11;44.67;100139.59;5296018;26;20102;-78
2024/04/26 07:35:52;;;;;;;5.97;2.88;;;;;;;7.19;47.61;100135.38;5293025;26;20020;-77
2024/04/26 07:38:17;;;;;;;5.90;3.80;;;;;;;7.27;46.43;100137.72;5284106;26;20009;-79
2024/04/26 07:40:43;;;;;;;8.55;3.60;;;;;;;7.04;47.66;100133.34;5274075;26;20455;-78
2024/04/26 07:43:12;;;;;;;6.55;3.17;;;;;;;6.85;47.78;100141.81;5296323;26;20025;-77
2024/04/26 07:45:38;;;;;;;12.77;5.07;;;;;;;6.99;47.43;100130.09;5318222;26;20511;-78
2024/04/26 07:48:05;;;;;;;5.38;3.90;;;;;;;7.73;47.93;100136.81;5289568;26;20005;-76
2024/04/26 07:50:30;;;;;;;6.55;3.60;;;;;;;10.66;41.07;100131.28;5290212;26;20056;-78
2024/04/26 07:52:56;;;;;;;7.10;3.35;;;;;;;11.51;37.67;100122.34;5292772;26;20013;-78
2024/04/26 07:55:21;;;;;;;6.30;3.22;;;;;;;10.19;38.50;100120.59;5288630;26;20016;-76
2024/04/26 07:57:47;;;;;;;3.45;2.67;;;;;;;9.26;40.19;100128.53;5284691;26;20009;-78
2024/04/26 08:00:13;;;;;;;5.63;2.42;;;;;;;8.22;42.11;100120.91;5266119;26;20083;-78
2024/04/26 08:02:39;;;;;;;5.72;2.40;;;;;;;7.85;43.16;100121.59;5281746;26;20005;-78
2024/04/26 08:05:05;;;;;;;4.80;2.25;;;;;;;8.18;42.63;100118.50;5303469;26;20010;-78
2024/04/26 08:07:30;;;;;;;2.78;1.98;;;;;;;8.61;42.22;100124.50;5264409;26;20543;-76
2024/04/26 08:09:56;;;;;;;9.10;2.72;;;;;;;8.40;41.78;100127.09;5286626;26;20033;-76
2024/04/26 08:12:21;;;;;;;5.80;1.88;;;;;;;9.62;40.28;100117.28;5283368;26;20100;-75
2024/04/26 08:14:47;;;;;;;2.33;1.35;;;;;;;12.34;35.98;100117.66;5278524;26;20013;-76
2024/04/26 08:17:13;;;;;;;5.85;1.50;;;;;;;12.01;35.93;100118.69;5286288;26;20079;-75
2024/04/26 08:19:38;;;;;;;3.90;1.70;;;;;;;12.81;36.17;100120.03;5294822;26;20443;-76
2024/04/26 08:22:04;;;;;;;4.15;2.20;;;;;;;13.60;34.31;100118.59;5289255;26;20360;-76
2024/04/26 08:24:29;;;;;;;4.25;1.30;;;;;;;13.32;34.26;100116.88;5286323;26;20024;-77
2024/04/26 08:26:55;;;;;;;7.28;1.15;;;;;;;14.18;32.13;100108.66;5285602;26;20005;-77
2024/04/26 08:29:20;;;;;;;6.15;4.30;;;;;;;13.17;33.64;100112.59;5305170;26;20009;-76
2024/04/26 08:31:46;;;;;;;5.55;1.65;;;;;;;13.59;32.78;100109.03;5259074;26;20016;-76
2024/04/26 08:34:12;;;;;;;2.78;1.17;;;;;;;10.11;36.23;100112.28;5298194;26;20101;-76
2024/04/26 08:36:39;;;;;;;5.82;1.52;;;;;;;10.30;37.01;100116.56;5298034;26;20008;-77
2024/04/26 08:39:05;;;;;;;2.63;1.30;;;;;;;9.04;38.68;100127.81;5286092;26;20048;-76
2024/04/26 08:41:31;;;;;;;2.03;1.13;;;;;;;8.71;40.00;100123.19;5286478;26;20024;-76
2024/04/26 08:44:00;;;;;;;2.47;0.90;;;;;;;8.64;40.63;100119.97;5237506;26;20017;-76
2024/04/26 08:46:27;;;;;;;1.23;0.60;;;;;;;8.31;41.41;100125.72;5334492;26;20176;-76
2024/04/26 08:48:57;;;;;;;1.27;0.77;;;;;;;5.97;45.07;100148.28;5280260;26;20013;-77
2024/04/26 08:51:23;;;;;;;4.45;0.77;;;;;;;6.57;45.15;100160.13;5313594;26;20801;-76
2024/04/26 08:53:49;;;;;;;1.35;0.30;;;;;;;4.98;49.33;100171.97;5281145;26;20023;-74
2024/04/26 08:56:20;;;;;;;1.67;0.40;;;;;;;5.10;50.97;100188.06;5286487;26;20104;-75
2024/04/26 08:58:50;;;;;;;6.38;1.13;;;;;;;4.37;53.22;100205.47;5278353;26;20866;-75
2024/04/26 09:01:17;;;;;;;2.25;0.40;;;;;;;3.82;53.35;100200.75;5285386;26;20455;-78
2024/04/26 09:03:44;;;;;;;3.83;0.82;;;;;;;3.36;55.45;100203.47;5281405;26;20013;-75
2024/04/26 09:06:16;;;;;;;1.30;0.32;;;;;;;3.38;56.25;100198.25;5284785;26;20086;-73
2024/04/26 09:08:42;;;;;;;1.20;0.35;;;;;;;3.27;57.27;100206.22;5275792;26;20006;-73
2024/04/26 09:11:14;;;;;;;0.70;0.20;;;;;;;3.11;57.71;100203.09;5281594;26;20021;-74
2024/04/26 09:13:39;;;;;;;0.63;0.20;;;;;;;3.42;57.36;100199.88;5297794;26;20016;-75
2024/04/26 09:16:05;;;;;;;0.70;0.10;;;;;;;4.19;56.34;100193.84;5290147;26;20612;-74
2024/04/26 09:18:31;;;;;;;1.38;0.10;;;;;;;4.11;55.68;100202.66;5313431;26;20440;-73
2024/04/26 09:20:56;;;;;;;0.93;0.10;;;;;;;4.28;55.13;100197.09;5277980;26;20443;-73
2024/04/26 09:23:22;;;;;;;0.70;0.10;;;;;;;4.35;54.63;100214.16;5345613;26;20017;-76
2024/04/26 09:25:47;;;;;;;1.27;0.40;;;;;;;3.57;56.82;100211.63;5313338;26;20006;-73
2024/04/26 09:28:12;;;;;;;1.55;0.35;;;;;;;4.05;56.68;100207.97;5276515;26;20559;-76
2024/04/26 09:30:48;;;;;;;1.25;0.10;;;;;;;4.78;55.35;100208.72;5298558;26;20017;-74
2024/04/26 09:33:19;;;;;;;0.40;0.00;;;;;;;5.65;54.32;100208.03;5297760;26;20009;-73
2024/04/26 09:35:47;;;;;;;0.47;0.10;;;;;;;6.57;54.26;100206.03;5281413;26;20023;-73
2024/04/26 09:38:19;;;;;;;1.15;0.40;;;;;;;7.71;51.26;100206.25;5303516;26;20049;-73
2024/04/26 09:40:47;;;;;;;0.82;0.20;;;;;;;8.47;50.46;100209.28;5300992;26;20009;-73
2024/04/26 09:43:13;;;;;;;0.88;0.30;;;;;;;8.06;48.40;100201.38;5289949;26;19997;-73
2024/04/26 09:45:41;;;;;;;2.53;0.50;;;;;;;9.09;47.04;100201.44;5325541;26;20036;-73
2024/04/26 09:48:07;;;;;;;4.00;0.47;;;;;;;8.78;47.42;100202.78;5288626;26;20002;-73
2024/04/26 09:50:34;;;;;;;1.88;0.80;;;;;;;9.11;46.92;100202.22;5299012;26;21911;-73
2024/04/26 09:53:00;;;;;;;1.17;0.38;;;;;;;8.82;45.82;100195.69;5298457;26;20001;-73
2024/04/26 09:55:27;;;;;;;3.25;0.40;;;;;;;8.86;44.84;100197.25;5297192;26;20021;-75
2024/04/26 09:57:53;;;;;;;2.35;0.47;;;;;;;8.41;45.41;100206.09;5274046;26;20707;-74
2024/04/26 10:00:20;;;;;;;2.60;0.68;;;;;;;7.53;45.19;100201.69;5291616;26;20018;-73
2024/04/26 10:02:50;;;;;;;3.70;0.60;;;;;;;7.73;46.94;100209.63;5284295;26;20120;-74
2024/04/26 10:05:19;;;;;;;1.40;0.45;;;;;;;8.83;44.80;100208.66;5301330;26;20013;-73
2024/04/26 10:08:07;;;;;;;1.63;0.52;;;;;;;9.22;42.49;100202.59;5283881;26;21193;-73
2024/04/26 10:10:34;;;;;;;2.78;0.40;;;;;;;9.12;42.16;100209.97;5293765;26;20004;-75
2024/04/26 10:13:04;;;;;;;1.33;0.68;;;;;;;8.40;45.05;100214.78;5271218;26;20021;-75
2024/04/26 10:15:29;;;;;;;3.20;2.47;;;;;;;8.83;44.92;100213.88;5307531;26;20010;-74
2024/04/26 10:17:55;;;;;;;2.80;0.75;;;;;;;8.75;44.54;100206.38;5288837;26;20005;-75
2024/04/26 10:20:21;;;;;;;4.20;0.70;;;;;;;8.64;44.35;100208.56;5344734;26;20131;-74
2024/04/26 10:23:10;;;;;;;1.20;0.60;;;;;;;8.22;45.09;100212.03;5299707;26;20009;-74
2024/04/26 10:25:36;;;;;;;3.35;1.00;;;;;;;8.93;44.06;100211.69;5292915;26;20742;-75
2024/04/26 10:28:12;;;;;;;3.50;0.88;;;;;;;9.94;42.97;100214.06;5321224;26;20028;-75
2024/04/26 10:30:46;;;;;;;2.92;1.40;;;;;;;11.02;42.16;100210.44;5329865;26;20001;-75
2024/04/26 10:33:16;;;;;;;1.88;0.70;;;;;;;10.71;40.51;100215.53;5302143;26;20194;-75
2024/04/26 10:35:42;;;;;;;3.40;0.75;;;;;;;10.19;39.47;100214.59;5323301;26;20235;-75
2024/04/26 10:38:08;;;;;;;1.67;0.80;;;;;;;9.74;40.80;100217.59;5326204;26;20487;-75
2024/04/26 10:40:48;;;;;;;1.27;0.60;;;;;;;9.84;39.96;100213.69;5268779;26;20340;-76
2024/04/26 10:43:29;;;;;;;5.63;0.63;;;;;;;10.21;40.61;100217.13;5298553;26;20072;-77
2024/04/26 10:45:56;;;;;;;1.20;0.30;;;;;;;11.13;38.80;100214.22;5292889;26;20023;-75
2024/04/26 10:48:33;;;;;;;1.00;0.15;;;;;;;11.70;37.84;100219.88;5336990;26;20010;-74
2024/04/26 10:51:05;;;;;;;1.00;0.10;;;;;;;11.43;37.24;100225.69;5292658;26;20006;-75
2024/04/26 10:53:33;;;;;;;1.55;0.25;;;;;;;11.39;36.97;100223.31;5310826;26;20005;-75
2024/04/26 10:56:04;;;;;;;1.42;0.32;;;;;;;12.32;36.00;100232.19;5282074;26;20801;-76
2024/04/26 10:58:41;;;;;;;1.38;0.22;;;;;;;11.33;35.54;100232.34;5264418;26;20351;-75
2024/04/26 11:01:23;;;;;;;0.40;0.10;;;;;;;10.55;37.01;100234.59;5287309;26;20001;-75
2024/04/26 11:03:59;;;;;;;2.80;0.30;;;;;;;10.24;37.99;100234.44;5293524;26;20023;-74
2024/04/26 11:06:29;;;;;;;0.85;0.30;;;;;;;9.95;37.54;100234.91;5282594;26;20011;-75
2024/04/26 11:09:12;;;;;;;1.77;0.30;;;;;;;10.45;40.08;100241.19;5309808;26;20001;-75
2024/04/26 11:11:39;;;;;;;2.83;0.63;;;;;;;10.61;36.50;100244.72;5280245;26;20453;-74
2024/04/26 11:14:05;;;;;;;4.22;0.68;;;;;;;10.37;37.37;100238.09;5289874;26;20537;-74
2024/04/26 11:16:34;;;;;;;3.30;0.85;;;;;;;10.31;37.11;100241.03;5319541;26;20077;-74
2024/04/26 11:19:00;;;;;;;2.72;0.30;;;;;;;10.45;38.25;100235.97;5309361;26;20006;-75
2024/04/26 11:21:26;;;;;;;3.78;0.30;;;;;;;10.27;37.90;100247.31;5268543;26;20009;-75
2024/04/26 11:23:51;;;;;;;1.63;0.30;;;;;;;10.04;37.22;100245.84;5314972;26;21060;-75